Terminal Aerodrome Forecast
Issued by NWS

Home | Current Version | Previous Version | Graphics & Text | Print | Product List | Glossary On
Versions: 1 2 3 4 5 6 7 8 9 10 11 12 13 14 15
503
FTUS43 KFGF 151139
TAFBJI
TAF
KBJI 151139Z 1512/1612 33010KT P6SM OVC070
     FM151600 34011KT P6SM BKN015
     FM160200 34008KT P6SM BKN035
     FM160600 32005KT P6SM SCT080=

USA.gov is the U.S. government's official web portal to all federal, state and local government web resources and services.